sensor_id;sensor_type;location;lat;lon;timestamp;P1;durP1;ratioP1;P2;durP2;ratioP2
72584;SDS011;60618;40.084;32.908;2023-03-09T00:00:54;9.15;;;2.60;;
72584;SDS011;60618;40.084;32.908;2023-03-09T00:03:21;7.38;;;2.65;;
72584;SDS011;60618;40.084;32.908;2023-03-09T00:05:56;11.77;;;3.60;;
72584;SDS011;60618;40.084;32.908;2023-03-09T00:08:25;10.80;;;3.20;;
72584;SDS011;60618;40.084;32.908;2023-03-09T00:10:54;12.25;;;3.08;;
72584;SDS011;60618;40.084;32.908;2023-03-09T00:13:21;8.82;;;2.55;;
72584;SDS011;60618;40.084;32.908;2023-03-09T00:15:49;7.00;;;2.60;;
72584;SDS011;60618;40.084;32.908;2023-03-09T00:18:19;6.75;;;2.60;;
72584;SDS011;60618;40.084;32.908;2023-03-09T00:20:48;8.23;;;2.90;;
72584;SDS011;60618;40.084;32.908;2023-03-09T00:23:15;7.30;;;2.80;;
72584;SDS011;60618;40.084;32.908;2023-03-09T00:25:42;10.88;;;3.30;;
72584;SDS011;60618;40.084;32.908;2023-03-09T00:28:09;9.57;;;3.10;;
72584;SDS011;60618;40.084;32.908;2023-03-09T00:30:36;6.55;;;3.17;;
72584;SDS011;60618;40.084;32.908;2023-03-09T00:33:03;7.57;;;2.53;;
72584;SDS011;60618;40.084;32.908;2023-03-09T00:35:30;9.98;;;3.00;;
72584;SDS011;60618;40.084;32.908;2023-03-09T00:37:57;10.93;;;3.33;;
72584;SDS011;60618;40.084;32.908;2023-03-09T00:40:23;7.50;;;2.63;;
72584;SDS011;60618;40.084;32.908;2023-03-09T00:42:50;7.80;;;3.03;;
72584;SDS011;60618;40.084;32.908;2023-03-09T00:45:17;8.33;;;2.83;;
72584;SDS011;60618;40.084;32.908;2023-03-09T00:47:44;7.72;;;3.10;;
72584;SDS011;60618;40.084;32.908;2023-03-09T00:50:11;7.47;;;3.08;;
72584;SDS011;60618;40.084;32.908;2023-03-09T00:52:38;9.43;;;3.67;;
72584;SDS011;60618;40.084;32.908;2023-03-09T00:55:05;12.13;;;3.70;;
72584;SDS011;60618;40.084;32.908;2023-03-09T00:57:32;10.87;;;3.70;;
72584;SDS011;60618;40.084;32.908;2023-03-09T00:59:59;9.45;;;3.30;;
72584;SDS011;60618;40.084;32.908;2023-03-09T01:02:26;11.88;;;3.90;;
72584;SDS011;60618;40.084;32.908;2023-03-09T01:04:53;9.50;;;4.13;;
72584;SDS011;60618;40.084;32.908;2023-03-09T01:07:20;10.95;;;4.20;;
72584;SDS011;60618;40.084;32.908;2023-03-09T01:09:47;13.00;;;4.30;;
72584;SDS011;60618;40.084;32.908;2023-03-09T01:12:14;13.20;;;4.72;;
72584;SDS011;60618;40.084;32.908;2023-03-09T01:14:41;11.43;;;4.72;;
72584;SDS011;60618;40.084;32.908;2023-03-09T01:17:08;11.98;;;5.20;;
72584;SDS011;60618;40.084;32.908;2023-03-09T01:19:35;14.25;;;4.15;;
72584;SDS011;60618;40.084;32.908;2023-03-09T01:22:02;7.93;;;3.70;;
72584;SDS011;60618;40.084;32.908;2023-03-09T01:24:29;11.73;;;3.90;;
72584;SDS011;60618;40.084;32.908;2023-03-09T01:26:56;11.13;;;3.80;;
72584;SDS011;60618;40.084;32.908;2023-03-09T01:29:23;11.10;;;3.85;;
72584;SDS011;60618;40.084;32.908;2023-03-09T01:31:49;11.93;;;4.47;;
72584;SDS011;60618;40.084;32.908;2023-03-09T01:34:16;9.67;;;4.30;;
72584;SDS011;60618;40.084;32.908;2023-03-09T01:36:43;12.63;;;4.10;;
72584;SDS011;60618;40.084;32.908;2023-03-09T01:39:10;13.95;;;5.40;;
72584;SDS011;60618;40.084;32.908;2023-03-09T01:41:37;10.15;;;4.90;;
72584;SDS011;60618;40.084;32.908;2023-03-09T01:44:04;14.60;;;5.43;;
72584;SDS011;60618;40.084;32.908;2023-03-09T01:46:33;11.47;;;4.53;;
72584;SDS011;60618;40.084;32.908;2023-03-09T01:51:39;12.98;;;5.53;;
72584;SDS011;60618;40.084;32.908;2023-03-09T01:54:19;14.63;;;5.88;;
72584;SDS011;60618;40.084;32.908;2023-03-09T01:56:53;14.20;;;5.65;;
72584;SDS011;60618;40.084;32.908;2023-03-09T01:59:25;19.07;;;8.07;;
72584;SDS011;60618;40.084;32.908;2023-03-09T02:01:54;16.52;;;6.75;;
72584;SDS011;60618;40.084;32.908;2023-03-09T02:04:23;16.70;;;6.90;;
72584;SDS011;60618;40.084;32.908;2023-03-09T02:06:58;14.40;;;6.50;;
72584;SDS011;60618;40.084;32.908;2023-03-09T02:12:11;15.50;;;6.23;;
72584;SDS011;60618;40.084;32.908;2023-03-09T02:14:42;12.65;;;6.13;;
72584;SDS011;60618;40.084;32.908;2023-03-09T02:17:12;14.40;;;6.25;;
72584;SDS011;60618;40.084;32.908;2023-03-09T02:22:15;14.13;;;6.38;;
72584;SDS011;60618;40.084;32.908;2023-03-09T02:27:23;12.38;;;5.80;;
72584;SDS011;60618;40.084;32.908;2023-03-09T02:29:52;13.13;;;5.15;;
72584;SDS011;60618;40.084;32.908;2023-03-09T02:32:20;10.73;;;4.47;;
72584;SDS011;60618;40.084;32.908;2023-03-09T02:34:47;13.82;;;5.32;;
72584;SDS011;60618;40.084;32.908;2023-03-09T02:37:21;14.00;;;5.20;;
72584;SDS011;60618;40.084;32.908;2023-03-09T02:40:47;15.38;;;5.97;;
72584;SDS011;60618;40.084;32.908;2023-03-09T02:43:02;13.85;;;6.00;;
72584;SDS011;60618;40.084;32.908;2023-03-09T02:45:31;14.27;;;5.68;;
72584;SDS011;60618;40.084;32.908;2023-03-09T02:47:59;15.05;;;6.93;;
72584;SDS011;60618;40.084;32.908;2023-03-09T02:50:26;15.83;;;6.13;;
72584;SDS011;60618;40.084;32.908;2023-03-09T02:52:53;12.90;;;6.18;;
72584;SDS011;60618;40.084;32.908;2023-03-09T02:55:20;15.65;;;5.90;;
72584;SDS011;60618;40.084;32.908;2023-03-09T02:57:47;13.73;;;6.05;;
72584;SDS011;60618;40.084;32.908;2023-03-09T03:00:15;11.27;;;5.88;;
72584;SDS011;60618;40.084;32.908;2023-03-09T03:02:42;11.60;;;5.53;;
72584;SDS011;60618;40.084;32.908;2023-03-09T03:05:09;13.45;;;6.25;;
72584;SDS011;60618;40.084;32.908;2023-03-09T03:07:36;12.73;;;5.38;;
72584;SDS011;60618;40.084;32.908;2023-03-09T03:10:03;11.52;;;4.72;;
72584;SDS011;60618;40.084;32.908;2023-03-09T03:12:31;16.25;;;6.45;;
72584;SDS011;60618;40.084;32.908;2023-03-09T03:14:58;14.93;;;6.50;;
72584;SDS011;60618;40.084;32.908;2023-03-09T03:17:25;12.18;;;5.65;;
72584;SDS011;60618;40.084;32.908;2023-03-09T03:19:52;13.00;;;6.15;;
72584;SDS011;60618;40.084;32.908;2023-03-09T03:22:19;14.73;;;6.40;;
72584;SDS011;60618;40.084;32.908;2023-03-09T03:24:46;15.27;;;6.35;;
72584;SDS011;60618;40.084;32.908;2023-03-09T03:27:13;12.50;;;6.10;;
72584;SDS011;60618;40.084;32.908;2023-03-09T03:29:41;16.17;;;6.07;;
72584;SDS011;60618;40.084;32.908;2023-03-09T03:32:08;15.52;;;5.93;;
72584;SDS011;60618;40.084;32.908;2023-03-09T03:34:35;15.20;;;5.80;;
72584;SDS011;60618;40.084;32.908;2023-03-09T03:37:02;12.10;;;5.40;;
72584;SDS011;60618;40.084;32.908;2023-03-09T03:39:28;14.40;;;5.80;;
72584;SDS011;60618;40.084;32.908;2023-03-09T03:41:55;15.18;;;6.70;;
72584;SDS011;60618;40.084;32.908;2023-03-09T03:44:22;12.98;;;6.60;;
72584;SDS011;60618;40.084;32.908;2023-03-09T03:46:49;12.50;;;6.03;;
72584;SDS011;60618;40.084;32.908;2023-03-09T03:49:16;14.48;;;6.03;;
72584;SDS011;60618;40.084;32.908;2023-03-09T03:51:43;22.37;;;8.83;;
72584;SDS011;60618;40.084;32.908;2023-03-09T03:54:10;18.42;;;7.88;;
72584;SDS011;60618;40.084;32.908;2023-03-09T03:56:37;15.20;;;6.10;;
72584;SDS011;60618;40.084;32.908;2023-03-09T03:59:04;14.23;;;6.45;;
72584;SDS011;60618;40.084;32.908;2023-03-09T04:01:33;14.23;;;6.00;;
72584;SDS011;60618;40.084;32.908;2023-03-09T04:04:00;12.80;;;4.63;;
72584;SDS011;60618;40.084;32.908;2023-03-09T04:06:27;11.25;;;4.47;;
72584;SDS011;60618;40.084;32.908;2023-03-09T04:08:54;15.45;;;5.85;;
72584;SDS011;60618;40.084;32.908;2023-03-09T04:11:21;15.60;;;6.80;;
72584;SDS011;60618;40.084;32.908;2023-03-09T04:13:48;16.52;;;6.57;;
72584;SDS011;60618;40.084;32.908;2023-03-09T04:16:16;11.47;;;5.33;;
72584;SDS011;60618;40.084;32.908;2023-03-09T04:18:44;12.45;;;4.85;;
72584;SDS011;60618;40.084;32.908;2023-03-09T04:21:11;12.75;;;5.22;;
72584;SDS011;60618;40.084;32.908;2023-03-09T04:23:38;12.68;;;4.60;;
72584;SDS011;60618;40.084;32.908;2023-03-09T04:26:05;13.20;;;5.13;;
72584;SDS011;60618;40.084;32.908;2023-03-09T04:28:32;12.80;;;5.37;;
72584;SDS011;60618;40.084;32.908;2023-03-09T04:30:59;10.80;;;5.05;;
72584;SDS011;60618;40.084;32.908;2023-03-09T04:33:26;11.75;;;4.63;;
72584;SDS011;60618;40.084;32.908;2023-03-09T04:35:53;11.73;;;4.30;;
72584;SDS011;60618;40.084;32.908;2023-03-09T04:38:20;13.68;;;4.55;;
72584;SDS011;60618;40.084;32.908;2023-03-09T04:40:47;12.73;;;4.77;;
72584;SDS011;60618;40.084;32.908;2023-03-09T04:43:15;11.60;;;4.60;;
72584;SDS011;60618;40.084;32.908;2023-03-09T04:45:42;13.63;;;5.97;;
72584;SDS011;60618;40.084;32.908;2023-03-09T04:48:09;13.80;;;5.68;;
72584;SDS011;60618;40.084;32.908;2023-03-09T04:50:35;13.02;;;5.90;;
72584;SDS011;60618;40.084;32.908;2023-03-09T04:53:02;12.63;;;5.53;;
72584;SDS011;60618;40.084;32.908;2023-03-09T04:55:29;18.05;;;7.32;;
72584;SDS011;60618;40.084;32.908;2023-03-09T04:57:56;17.30;;;7.80;;
72584;SDS011;60618;40.084;32.908;2023-03-09T05:00:23;16.35;;;7.75;;
72584;SDS011;60618;40.084;32.908;2023-03-09T05:02:50;13.27;;;6.22;;
72584;SDS011;60618;40.084;32.908;2023-03-09T05:05:17;13.03;;;6.50;;
72584;SDS011;60618;40.084;32.908;2023-03-09T05:07:44;19.45;;;8.88;;
72584;SDS011;60618;40.084;32.908;2023-03-09T05:10:11;26.98;;;10.80;;
72584;SDS011;60618;40.084;32.908;2023-03-09T05:12:38;20.15;;;9.52;;
72584;SDS011;60618;40.084;32.908;2023-03-09T05:15:05;24.60;;;11.20;;
72584;SDS011;60618;40.084;32.908;2023-03-09T05:17:33;26.20;;;11.40;;
72584;SDS011;60618;40.084;32.908;2023-03-09T05:19:59;21.70;;;10.43;;
72584;SDS011;60618;40.084;32.908;2023-03-09T05:22:26;29.30;;;13.40;;
72584;SDS011;60618;40.084;32.908;2023-03-09T05:24:53;27.40;;;13.77;;
72584;SDS011;60618;40.084;32.908;2023-03-09T05:27:20;30.27;;;14.48;;
72584;SDS011;60618;40.084;32.908;2023-03-09T05:29:50;31.83;;;14.53;;
72584;SDS011;60618;40.084;32.908;2023-03-09T05:32:18;28.23;;;14.02;;
72584;SDS011;60618;40.084;32.908;2023-03-09T05:34:45;27.58;;;13.70;;
72584;SDS011;60618;40.084;32.908;2023-03-09T05:37:12;27.13;;;12.63;;
72584;SDS011;60618;40.084;32.908;2023-03-09T05:39:39;18.67;;;9.95;;
72584;SDS011;60618;40.084;32.908;2023-03-09T05:42:06;19.53;;;10.00;;
72584;SDS011;60618;40.084;32.908;2023-03-09T05:44:33;23.90;;;10.35;;
72584;SDS011;60618;40.084;32.908;2023-03-09T05:47:01;21.73;;;12.52;;
72584;SDS011;60618;40.084;32.908;2023-03-09T05:49:28;26.65;;;13.15;;
72584;SDS011;60618;40.084;32.908;2023-03-09T05:51:55;24.20;;;12.13;;
72584;SDS011;60618;40.084;32.908;2023-03-09T05:54:22;24.63;;;12.73;;
72584;SDS011;60618;40.084;32.908;2023-03-09T05:56:49;28.48;;;12.77;;
72584;SDS011;60618;40.084;32.908;2023-03-09T05:59:19;25.02;;;11.65;;
72584;SDS011;60618;40.084;32.908;2023-03-09T06:01:46;27.67;;;11.80;;
72584;SDS011;60618;40.084;32.908;2023-03-09T06:04:13;32.95;;;13.77;;
72584;SDS011;60618;40.084;32.908;2023-03-09T06:06:40;25.63;;;12.67;;
72584;SDS011;60618;40.084;32.908;2023-03-09T06:09:08;26.50;;;13.52;;
72584;SDS011;60618;40.084;32.908;2023-03-09T06:11:35;26.30;;;13.27;;
72584;SDS011;60618;40.084;32.908;2023-03-09T06:14:01;26.30;;;12.93;;
72584;SDS011;60618;40.084;32.908;2023-03-09T06:16:29;29.80;;;13.55;;
72584;SDS011;60618;40.084;32.908;2023-03-09T06:18:56;28.43;;;12.80;;
72584;SDS011;60618;40.084;32.908;2023-03-09T06:21:23;25.45;;;11.82;;
72584;SDS011;60618;40.084;32.908;2023-03-09T06:23:52;26.02;;;13.30;;
72584;SDS011;60618;40.084;32.908;2023-03-09T06:26:20;29.05;;;13.82;;
72584;SDS011;60618;40.084;32.908;2023-03-09T06:28:47;31.73;;;14.73;;
72584;SDS011;60618;40.084;32.908;2023-03-09T06:31:15;28.73;;;14.00;;
72584;SDS011;60618;40.084;32.908;2023-03-09T06:33:44;24.88;;;13.35;;
72584;SDS011;60618;40.084;32.908;2023-03-09T06:36:13;26.77;;;12.65;;
72584;SDS011;60618;40.084;32.908;2023-03-09T06:38:41;20.02;;;9.77;;
72584;SDS011;60618;40.084;32.908;2023-03-09T06:41:09;15.85;;;6.43;;
72584;SDS011;60618;40.084;32.908;2023-03-09T06:43:36;15.87;;;7.23;;
72584;SDS011;60618;40.084;32.908;2023-03-09T06:46:03;13.45;;;5.28;;
72584;SDS011;60618;40.084;32.908;2023-03-09T06:48:30;12.35;;;4.43;;
72584;SDS011;60618;40.084;32.908;2023-03-09T06:50:57;13.25;;;5.10;;
72584;SDS011;60618;40.084;32.908;2023-03-09T06:53:24;13.15;;;5.00;;
72584;SDS011;60618;40.084;32.908;2023-03-09T06:55:51;12.77;;;5.10;;
72584;SDS011;60618;40.084;32.908;2023-03-09T06:58:18;17.77;;;5.40;;
72584;SDS011;60618;40.084;32.908;2023-03-09T07:00:45;13.95;;;5.15;;
72584;SDS011;60618;40.084;32.908;2023-03-09T07:03:16;15.50;;;5.00;;
72584;SDS011;60618;40.084;32.908;2023-03-09T07:05:47;14.93;;;5.40;;
72584;SDS011;60618;40.084;32.908;2023-03-09T07:08:15;14.07;;;5.43;;
72584;SDS011;60618;40.084;32.908;2023-03-09T07:10:41;14.98;;;5.50;;
72584;SDS011;60618;40.084;32.908;2023-03-09T07:13:12;15.43;;;5.25;;
72584;SDS011;60618;40.084;32.908;2023-03-09T07:15:39;16.27;;;5.68;;
72584;SDS011;60618;40.084;32.908;2023-03-09T07:18:06;13.82;;;6.15;;
72584;SDS011;60618;40.084;32.908;2023-03-09T07:20:34;14.33;;;5.80;;
72584;SDS011;60618;40.084;32.908;2023-03-09T07:23:10;18.75;;;6.47;;
72584;SDS011;60618;40.084;32.908;2023-03-09T07:25:37;18.67;;;7.88;;
72584;SDS011;60618;40.084;32.908;2023-03-09T07:28:05;19.08;;;7.82;;
72584;SDS011;60618;40.084;32.908;2023-03-09T07:30:38;17.33;;;7.25;;
72584;SDS011;60618;40.084;32.908;2023-03-09T07:33:05;20.37;;;8.60;;
72584;SDS011;60618;40.084;32.908;2023-03-09T07:35:32;20.80;;;8.88;;
72584;SDS011;60618;40.084;32.908;2023-03-09T07:37:59;22.25;;;10.35;;
72584;SDS011;60618;40.084;32.908;2023-03-09T07:40:26;25.60;;;8.68;;
72584;SDS011;60618;40.084;32.908;2023-03-09T07:42:53;19.35;;;8.55;;
72584;SDS011;60618;40.084;32.908;2023-03-09T07:45:20;23.30;;;8.60;;
72584;SDS011;60618;40.084;32.908;2023-03-09T07:47:48;24.05;;;10.35;;
72584;SDS011;60618;40.084;32.908;2023-03-09T07:50:16;23.08;;;10.65;;
72584;SDS011;60618;40.084;32.908;2023-03-09T07:52:43;21.77;;;10.80;;
72584;SDS011;60618;40.084;32.908;2023-03-09T07:55:11;24.73;;;10.55;;
72584;SDS011;60618;40.084;32.908;2023-03-09T07:57:39;20.37;;;8.90;;
72584;SDS011;60618;40.084;32.908;2023-03-09T08:00:08;16.98;;;6.40;;
72584;SDS011;60618;40.084;32.908;2023-03-09T08:02:41;22.63;;;9.82;;
72584;SDS011;60618;40.084;32.908;2023-03-09T08:05:09;21.63;;;8.68;;
72584;SDS011;60618;40.084;32.908;2023-03-09T08:07:36;19.42;;;7.85;;
72584;SDS011;60618;40.084;32.908;2023-03-09T08:10:04;19.40;;;6.90;;
72584;SDS011;60618;40.084;32.908;2023-03-09T08:12:31;27.58;;;7.90;;
72584;SDS011;60618;40.084;32.908;2023-03-09T08:14:58;17.67;;;8.48;;
72584;SDS011;60618;40.084;32.908;2023-03-09T08:17:25;17.02;;;7.18;;
72584;SDS011;60618;40.084;32.908;2023-03-09T08:19:52;16.75;;;5.97;;
72584;SDS011;60618;40.084;32.908;2023-03-09T08:22:19;15.23;;;5.23;;
72584;SDS011;60618;40.084;32.908;2023-03-09T08:24:46;12.82;;;4.20;;
72584;SDS011;60618;40.084;32.908;2023-03-09T08:27:13;14.93;;;5.47;;
72584;SDS011;60618;40.084;32.908;2023-03-09T08:29:40;15.88;;;6.03;;
72584;SDS011;60618;40.084;32.908;2023-03-09T08:32:07;16.88;;;6.53;;
72584;SDS011;60618;40.084;32.908;2023-03-09T08:34:36;10.30;;;4.00;;
72584;SDS011;60618;40.084;32.908;2023-03-09T08:37:04;16.20;;;4.95;;
72584;SDS011;60618;40.084;32.908;2023-03-09T08:39:31;16.00;;;5.10;;
72584;SDS011;60618;40.084;32.908;2023-03-09T08:41:58;11.10;;;4.22;;
72584;SDS011;60618;40.084;32.908;2023-03-09T08:44:25;9.68;;;3.20;;
72584;SDS011;60618;40.084;32.908;2023-03-09T08:46:52;7.53;;;3.60;;
72584;SDS011;60618;40.084;32.908;2023-03-09T08:49:19;11.30;;;4.65;;
72584;SDS011;60618;40.084;32.908;2023-03-09T08:51:45;10.32;;;3.50;;
72584;SDS011;60618;40.084;32.908;2023-03-09T08:54:12;9.77;;;2.72;;
72584;SDS011;60618;40.084;32.908;2023-03-09T08:56:39;7.03;;;2.20;;
72584;SDS011;60618;40.084;32.908;2023-03-09T08:59:06;9.00;;;2.27;;
72584;SDS011;60618;40.084;32.908;2023-03-09T09:01:33;9.57;;;2.08;;
72584;SDS011;60618;40.084;32.908;2023-03-09T09:04:00;10.35;;;3.15;;
72584;SDS011;60618;40.084;32.908;2023-03-09T09:06:27;8.80;;;2.65;;
72584;SDS011;60618;40.084;32.908;2023-03-09T09:08:54;11.55;;;2.80;;
72584;SDS011;60618;40.084;32.908;2023-03-09T09:11:20;10.30;;;2.93;;
72584;SDS011;60618;40.084;32.908;2023-03-09T09:13:51;7.72;;;2.60;;
72584;SDS011;60618;40.084;32.908;2023-03-09T09:16:18;13.55;;;2.60;;
72584;SDS011;60618;40.084;32.908;2023-03-09T09:18:45;9.98;;;2.22;;
72584;SDS011;60618;40.084;32.908;2023-03-09T09:21:13;9.07;;;2.50;;
72584;SDS011;60618;40.084;32.908;2023-03-09T09:23:42;8.13;;;2.07;;
72584;SDS011;60618;40.084;32.908;2023-03-09T09:26:10;6.80;;;1.80;;
72584;SDS011;60618;40.084;32.908;2023-03-09T09:28:37;9.20;;;2.13;;
72584;SDS011;60618;40.084;32.908;2023-03-09T09:31:04;7.72;;;1.77;;
72584;SDS011;60618;40.084;32.908;2023-03-09T09:33:32;9.85;;;2.10;;
72584;SDS011;60618;40.084;32.908;2023-03-09T09:36:01;7.10;;;1.90;;
72584;SDS011;60618;40.084;32.908;2023-03-09T09:38:30;6.70;;;1.80;;
72584;SDS011;60618;40.084;32.908;2023-03-09T09:40:59;16.08;;;3.38;;
72584;SDS011;60618;40.084;32.908;2023-03-09T09:43:31;8.40;;;1.90;;
72584;SDS011;60618;40.084;32.908;2023-03-09T09:45:58;9.27;;;2.10;;
72584;SDS011;60618;40.084;32.908;2023-03-09T09:48:27;6.53;;;2.20;;
72584;SDS011;60618;40.084;32.908;2023-03-09T09:54:06;8.18;;;2.22;;
72584;SDS011;60618;40.084;32.908;2023-03-09T09:59:09;9.75;;;3.17;;
72584;SDS011;60618;40.084;32.908;2023-03-09T10:04:39;8.63;;;2.92;;
72584;SDS011;60618;40.084;32.908;2023-03-09T10:07:18;8.68;;;2.92;;
72584;SDS011;60618;40.084;32.908;2023-03-09T10:09:52;9.77;;;2.90;;
72584;SDS011;60618;40.084;32.908;2023-03-09T10:12:24;10.25;;;3.00;;
72584;SDS011;60618;40.084;32.908;2023-03-09T10:14:58;11.57;;;3.20;;
72584;SDS011;60618;40.084;32.908;2023-03-09T10:20:02;11.35;;;3.92;;
72584;SDS011;60618;40.084;32.908;2023-03-09T10:22:55;10.40;;;3.40;;
72584;SDS011;60618;40.084;32.908;2023-03-09T10:25:23;11.18;;;3.47;;
72584;SDS011;60618;40.084;32.908;2023-03-09T10:36:29;12.00;;;4.63;;
72584;SDS011;60618;40.084;32.908;2023-03-09T10:39:02;12.32;;;3.10;;
72584;SDS011;60618;40.084;32.908;2023-03-09T10:41:37;13.60;;;3.47;;
72584;SDS011;60618;40.084;32.908;2023-03-09T10:44:04;11.95;;;3.42;;
72584;SDS011;60618;40.084;32.908;2023-03-09T10:46:30;9.88;;;3.03;;
72584;SDS011;60618;40.084;32.908;2023-03-09T10:49:13;12.52;;;3.08;;
72584;SDS011;60618;40.084;32.908;2023-03-09T10:51:41;14.02;;;4.00;;
72584;SDS011;60618;40.084;32.908;2023-03-09T10:54:21;10.17;;;3.30;;
72584;SDS011;60618;40.084;32.908;2023-03-09T10:56:51;8.93;;;3.40;;
72584;SDS011;60618;40.084;32.908;2023-03-09T10:59:19;11.65;;;3.75;;
72584;SDS011;60618;40.084;32.908;2023-03-09T11:01:52;10.40;;;3.00;;
72584;SDS011;60618;40.084;32.908;2023-03-09T11:06:51;11.23;;;3.10;;
72584;SDS011;60618;40.084;32.908;2023-03-09T11:12:15;9.75;;;2.58;;
72584;SDS011;60618;40.084;32.908;2023-03-09T11:14:53;9.68;;;3.00;;
72584;SDS011;60618;40.084;32.908;2023-03-09T11:22:54;9.60;;;2.42;;
72584;SDS011;60618;40.084;32.908;2023-03-09T11:28:41;11.20;;;2.53;;
72584;SDS011;60618;40.084;32.908;2023-03-09T11:31:15;10.68;;;2.60;;
72584;SDS011;60618;40.084;32.908;2023-03-09T11:33:45;7.23;;;2.10;;
72584;SDS011;60618;40.084;32.908;2023-03-09T11:36:15;7.47;;;2.42;;
72584;SDS011;60618;40.084;32.908;2023-03-09T11:38:49;10.30;;;2.55;;
72584;SDS011;60618;40.084;32.908;2023-03-09T11:41:27;10.55;;;2.60;;
72584;SDS011;60618;40.084;32.908;2023-03-09T11:44:02;10.25;;;2.80;;
72584;SDS011;60618;40.084;32.908;2023-03-09T11:46:34;9.87;;;3.20;;
72584;SDS011;60618;40.084;32.908;2023-03-09T11:49:11;13.02;;;3.03;;
72584;SDS011;60618;40.084;32.908;2023-03-09T11:51:43;9.25;;;2.60;;
72584;SDS011;60618;40.084;32.908;2023-03-09T11:54:26;8.55;;;2.75;;
72584;SDS011;60618;40.084;32.908;2023-03-09T11:57:01;9.85;;;3.00;;
72584;SDS011;60618;40.084;32.908;2023-03-09T12:04:51;10.73;;;2.53;;
72584;SDS011;60618;40.084;32.908;2023-03-09T12:07:30;12.25;;;2.97;;
72584;SDS011;60618;40.084;32.908;2023-03-09T12:10:06;8.18;;;2.50;;
72584;SDS011;60618;40.084;32.908;2023-03-09T12:17:58;10.15;;;2.45;;
72584;SDS011;60618;40.084;32.908;2023-03-09T12:20:40;8.20;;;2.40;;
72584;SDS011;60618;40.084;32.908;2023-03-09T12:29:14;10.35;;;2.90;;
72584;SDS011;60618;40.084;32.908;2023-03-09T12:32:34;7.93;;;2.20;;
72584;SDS011;60618;40.084;32.908;2023-03-09T12:34:59;7.97;;;2.38;;
72584;SDS011;60618;40.084;32.908;2023-03-09T12:42:46;6.78;;;2.00;;
72584;SDS011;60618;40.084;32.908;2023-03-09T12:47:56;6.05;;;2.03;;
72584;SDS011;60618;40.084;32.908;2023-03-09T12:55:43;5.90;;;2.08;;
72584;SDS011;60618;40.084;32.908;2023-03-09T13:12:01;7.65;;;2.28;;
72584;SDS011;60618;40.084;32.908;2023-03-09T13:17:40;8.75;;;2.90;;
72584;SDS011;60618;40.084;32.908;2023-03-09T13:22:51;8.15;;;3.30;;
72584;SDS011;60618;40.084;32.908;2023-03-09T13:25:35;10.50;;;3.57;;
72584;SDS011;60618;40.084;32.908;2023-03-09T13:28:04;10.50;;;3.35;;
72584;SDS011;60618;40.084;32.908;2023-03-09T13:30:38;7.45;;;2.40;;
72584;SDS011;60618;40.084;32.908;2023-03-09T13:33:22;7.40;;;2.42;;
72584;SDS011;60618;40.084;32.908;2023-03-09T13:35:57;10.52;;;2.80;;
72584;SDS011;60618;40.084;32.908;2023-03-09T13:38:32;6.93;;;2.37;;
72584;SDS011;60618;40.084;32.908;2023-03-09T13:41:03;8.23;;;2.30;;
72584;SDS011;60618;40.084;32.908;2023-03-09T13:43:32;7.13;;;2.40;;
72584;SDS011;60618;40.084;32.908;2023-03-09T13:46:03;9.07;;;2.63;;
72584;SDS011;60618;40.084;32.908;2023-03-09T13:48:34;8.05;;;2.55;;
72584;SDS011;60618;40.084;32.908;2023-03-09T13:51:20;9.60;;;2.17;;
72584;SDS011;60618;40.084;32.908;2023-03-09T13:54:02;8.75;;;2.55;;
72584;SDS011;60618;40.084;32.908;2023-03-09T13:56:30;9.45;;;2.30;;
72584;SDS011;60618;40.084;32.908;2023-03-09T13:58:57;11.18;;;2.40;;
72584;SDS011;60618;40.084;32.908;2023-03-09T14:01:26;7.85;;;3.10;;
72584;SDS011;60618;40.084;32.908;2023-03-09T14:03:57;10.37;;;2.77;;
72584;SDS011;60618;40.084;32.908;2023-03-09T14:06:34;9.32;;;2.55;;
72584;SDS011;60618;40.084;32.908;2023-03-09T14:09:30;8.73;;;2.50;;
72584;SDS011;60618;40.084;32.908;2023-03-09T14:12:02;8.65;;;2.75;;
72584;SDS011;60618;40.084;32.908;2023-03-09T14:14:30;6.28;;;2.40;;
72584;SDS011;60618;40.084;32.908;2023-03-09T14:16:57;8.87;;;2.40;;
72584;SDS011;60618;40.084;32.908;2023-03-09T14:19:28;7.00;;;2.40;;
72584;SDS011;60618;40.084;32.908;2023-03-09T14:21:57;7.82;;;2.60;;
72584;SDS011;60618;40.084;32.908;2023-03-09T14:24:32;9.57;;;2.70;;
72584;SDS011;60618;40.084;32.908;2023-03-09T14:27:19;8.15;;;2.55;;
72584;SDS011;60618;40.084;32.908;2023-03-09T14:33:01;7.32;;;2.20;;
72584;SDS011;60618;40.084;32.908;2023-03-09T14:35:31;7.32;;;2.30;;
72584;SDS011;60618;40.084;32.908;2023-03-09T14:38:00;9.95;;;2.40;;
72584;SDS011;60618;40.084;32.908;2023-03-09T14:40:32;10.48;;;2.40;;
72584;SDS011;60618;40.084;32.908;2023-03-09T14:46:13;9.48;;;3.10;;
72584;SDS011;60618;40.084;32.908;2023-03-09T14:48:52;7.80;;;2.60;;
72584;SDS011;60618;40.084;32.908;2023-03-09T14:53:55;8.50;;;2.50;;
72584;SDS011;60618;40.084;32.908;2023-03-09T14:56:22;8.20;;;2.63;;
72584;SDS011;60618;40.084;32.908;2023-03-09T14:58:50;7.93;;;2.42;;
72584;SDS011;60618;40.084;32.908;2023-03-09T15:01:18;9.32;;;2.55;;
72584;SDS011;60618;40.084;32.908;2023-03-09T15:03:49;8.05;;;2.40;;
72584;SDS011;60618;40.084;32.908;2023-03-09T15:06:19;10.35;;;2.22;;
72584;SDS011;60618;40.084;32.908;2023-03-09T15:12:09;9.20;;;2.42;;
72584;SDS011;60618;40.084;32.908;2023-03-09T15:14:40;9.27;;;2.40;;
72584;SDS011;60618;40.084;32.908;2023-03-09T15:17:16;7.95;;;2.55;;
72584;SDS011;60618;40.084;32.908;2023-03-09T15:19:45;8.23;;;2.75;;
72584;SDS011;60618;40.084;32.908;2023-03-09T15:22:13;9.97;;;3.20;;
72584;SDS011;60618;40.084;32.908;2023-03-09T15:24:43;10.07;;;2.60;;
72584;SDS011;60618;40.084;32.908;2023-03-09T15:27:10;9.70;;;2.70;;
72584;SDS011;60618;40.084;32.908;2023-03-09T15:29:38;11.68;;;3.10;;
72584;SDS011;60618;40.084;32.908;2023-03-09T15:32:05;13.05;;;3.90;;
72584;SDS011;60618;40.084;32.908;2023-03-09T15:34:35;9.37;;;2.50;;
72584;SDS011;60618;40.084;32.908;2023-03-09T15:37:03;10.23;;;2.92;;
72584;SDS011;60618;40.084;32.908;2023-03-09T15:39:30;9.50;;;3.00;;
72584;SDS011;60618;40.084;32.908;2023-03-09T15:41:58;9.13;;;2.88;;
72584;SDS011;60618;40.084;32.908;2023-03-09T15:44:25;8.20;;;2.90;;
72584;SDS011;60618;40.084;32.908;2023-03-09T15:46:51;9.07;;;2.77;;
72584;SDS011;60618;40.084;32.908;2023-03-09T15:49:18;10.77;;;2.90;;
72584;SDS011;60618;40.084;32.908;2023-03-09T15:51:45;9.02;;;2.45;;
72584;SDS011;60618;40.084;32.908;2023-03-09T15:54:12;10.38;;;2.95;;
72584;SDS011;60618;40.084;32.908;2023-03-09T15:56:39;7.88;;;2.60;;
72584;SDS011;60618;40.084;32.908;2023-03-09T15:59:06;8.57;;;2.90;;
72584;SDS011;60618;40.084;32.908;2023-03-09T16:01:33;11.30;;;3.00;;
72584;SDS011;60618;40.084;32.908;2023-03-09T16:04:00;9.55;;;3.00;;
72584;SDS011;60618;40.084;32.908;2023-03-09T16:06:27;10.65;;;3.58;;
72584;SDS011;60618;40.084;32.908;2023-03-09T16:08:54;10.60;;;3.90;;
72584;SDS011;60618;40.084;32.908;2023-03-09T16:11:21;8.90;;;3.60;;
72584;SDS011;60618;40.084;32.908;2023-03-09T16:13:48;14.35;;;4.32;;
72584;SDS011;60618;40.084;32.908;2023-03-09T16:16:16;9.60;;;3.80;;
72584;SDS011;60618;40.084;32.908;2023-03-09T16:18:43;9.13;;;4.13;;
72584;SDS011;60618;40.084;32.908;2023-03-09T16:21:11;12.25;;;4.82;;